sensor_id;sensor_type;location;lat;lon;timestamp;P1;P4;P2;P0;N10;N4;N25;N1;N05;TS
59652;SPS30;45954;49.768;8.636;2022-11-15T00:00:53;10.43;9.29;7.02;3.99;32.30;32.20;31.67;28.65;20.57;0.89
59652;SPS30;45954;49.768;8.636;2022-11-15T00:03:22;7.69;6.93;5.40;3.34;26.92;26.84;26.49;24.45;18.26;0.84
59652;SPS30;45954;49.768;8.636;2022-11-15T00:05:50;9.83;8.86;6.92;4.30;34.66;34.57;34.11;31.52;23.59;0.85
59652;SPS30;45954;49.768;8.636;2022-11-15T00:08:16;8.44;7.60;5.94;3.69;29.75;29.67;29.28;27.06;20.25;0.85
59652;SPS30;45954;49.768;8.636;2022-11-15T00:10:42;9.70;8.73;6.80;4.18;33.76;33.66;33.21;30.63;22.84;0.84
59652;SPS30;45954;49.768;8.636;2022-11-15T00:13:09;8.61;7.67;5.80;3.30;26.73;26.65;26.21;23.72;17.05;0.90
59652;SPS30;45954;49.768;8.636;2022-11-15T00:15:39;10.13;9.04;6.85;3.93;31.82;31.72;31.21;28.31;20.42;0.91
59652;SPS30;45954;49.768;8.636;2022-11-15T00:18:06;8.24;7.36;5.61;3.26;26.38;26.29;25.89;23.55;17.10;0.90
59652;SPS30;45954;49.768;8.636;2022-11-15T00:20:38;8.28;7.40;5.65;3.30;26.68;26.59;26.18;23.85;17.35;0.90
59652;SPS30;45954;49.768;8.636;2022-11-15T00:23:05;7.11;6.41;5.01;3.12;25.17;25.10;24.77;22.90;17.16;0.84
59652;SPS30;45954;49.768;8.636;2022-11-15T00:25:31;9.22;8.26;6.35;3.78;30.57;30.48;30.04;27.49;20.20;0.88
59652;SPS30;45954;49.768;8.636;2022-11-15T00:27:58;8.35;7.51;5.85;3.60;29.07;28.99;28.60;26.38;19.67;0.84
59652;SPS30;45954;49.768;8.636;2022-11-15T00:30:26;8.57;7.70;5.98;3.65;29.46;29.38;28.98;26.67;19.82;0.85
59652;SPS30;45954;49.768;8.636;2022-11-15T00:32:52;6.97;6.27;4.88;3.00;24.20;24.14;23.81;21.95;16.36;0.83
59652;SPS30;45954;49.768;8.636;2022-11-15T00:35:19;8.84;7.96;6.22;3.86;31.12;31.04;30.63;28.30;21.17;0.81
59652;SPS30;45954;49.768;8.636;2022-11-15T00:37:46;6.81;6.13;4.79;2.97;23.96;23.89;23.58;21.78;16.30;0.81
59652;SPS30;45954;49.768;8.636;2022-11-15T00:40:12;10.60;9.49;7.27;4.30;34.74;34.63;34.12;31.16;22.81;0.87
59652;SPS30;45954;49.768;8.636;2022-11-15T00:42:39;7.55;6.76;5.19;3.08;24.85;24.77;24.41;22.31;16.36;0.86
59652;SPS30;45954;49.768;8.636;2022-11-15T00:45:06;8.38;7.52;5.81;3.50;28.24;28.15;27.75;25.47;18.80;0.85
59652;SPS30;45954;49.768;8.636;2022-11-15T00:47:32;9.79;8.75;6.68;3.91;31.59;31.49;31.01;28.25;20.57;0.86
59652;SPS30;45954;49.768;8.636;2022-11-15T00:49:58;7.61;6.81;5.20;3.06;24.70;24.62;24.25;22.11;16.13;0.85
59652;SPS30;45954;49.768;8.636;2022-11-15T00:52:24;8.56;7.67;5.90;3.52;28.43;28.35;27.93;25.57;18.80;0.85
59652;SPS30;45954;49.768;8.636;2022-11-15T00:54:50;8.69;7.76;5.91;3.43;27.75;27.67;27.24;24.77;17.98;0.89
59652;SPS30;45954;49.768;8.636;2022-11-15T00:57:16;7.59;6.78;5.16;3.00;24.23;24.15;23.77;21.62;15.68;0.88
59652;SPS30;45954;49.768;8.636;2022-11-15T00:59:42;6.50;5.84;4.53;2.75;22.24;22.18;21.87;20.12;14.92;0.81
59652;SPS30;45954;49.768;8.636;2022-11-15T01:02:07;6.98;6.28;4.89;3.00;24.23;24.17;23.84;21.98;16.37;0.81
59652;SPS30;45954;49.768;8.636;2022-11-15T01:04:33;8.70;7.79;5.99;3.56;28.77;28.68;28.26;25.85;18.98;0.83
59652;SPS30;45954;49.768;8.636;2022-11-15T01:06:59;8.14;7.31;5.65;3.42;27.64;27.57;27.18;24.97;18.48;0.80
59652;SPS30;45954;49.768;8.636;2022-11-15T01:09:25;9.36;8.42;6.53;3.98;32.15;32.06;31.62;29.10;21.61;0.82
59652;SPS30;45954;49.768;8.636;2022-11-15T01:11:51;6.80;6.11;4.72;2.85;23.04;22.97;22.65;20.80;15.39;0.83
59652;SPS30;45954;49.768;8.636;2022-11-15T01:14:17;8.67;7.77;5.97;3.55;28.65;28.56;28.14;25.74;18.89;0.85
59652;SPS30;45954;49.768;8.636;2022-11-15T01:16:43;10.03;8.94;6.75;3.85;31.17;31.06;30.55;27.66;19.88;0.87
59652;SPS30;45954;49.768;8.636;2022-11-15T01:19:09;8.66;7.76;5.97;3.57;28.87;28.78;28.37;25.99;19.13;0.83
59652;SPS30;45954;49.768;8.636;2022-11-15T01:21:35;7.31;6.55;5.05;3.02;24.40;24.32;23.97;21.96;16.17;0.83
59652;SPS30;45954;49.768;8.636;2022-11-15T01:24:01;8.76;7.87;6.09;3.69;29.79;29.71;29.29;26.92;19.94;0.84
59652;SPS30;45954;49.768;8.636;2022-11-15T01:26:27;7.63;6.83;5.23;3.09;24.97;24.89;24.52;22.39;16.38;0.88
59652;SPS30;45954;49.768;8.636;2022-11-15T01:28:53;8.57;7.63;5.75;3.25;26.30;26.21;25.77;23.28;16.65;0.91
59652;SPS30;45954;49.768;8.636;2022-11-15T01:31:19;7.15;6.39;4.88;2.86;23.15;23.08;22.73;20.72;15.11;0.88
59652;SPS30;45954;49.768;8.636;2022-11-15T01:33:46;8.11;7.26;5.58;3.32;26.81;26.73;26.34;24.10;17.69;0.87
59652;SPS30;45954;49.768;8.636;2022-11-15T01:36:14;8.18;7.30;5.54;3.20;25.90;25.82;25.41;23.08;16.70;0.90
59652;SPS30;45954;49.768;8.636;2022-11-15T01:38:47;8.34;7.45;5.68;3.30;26.70;26.61;26.20;23.83;17.31;0.91
59652;SPS30;45954;49.768;8.636;2022-11-15T01:41:21;9.16;8.18;6.22;3.61;29.16;29.07;28.61;26.01;18.85;0.89
59652;SPS30;45954;49.768;8.636;2022-11-15T01:43:55;7.57;6.77;5.17;3.03;24.53;24.45;24.08;21.96;16.01;0.88
59652;SPS30;45954;49.768;8.636;2022-11-15T01:46:57;7.50;6.72;5.17;3.09;24.98;24.91;24.55;22.48;16.54;0.87
59652;SPS30;45954;49.768;8.636;2022-11-15T01:49:29;7.65;6.87;5.31;3.20;25.87;25.79;25.43;23.35;17.26;0.87
59652;SPS30;45954;49.768;8.636;2022-11-15T01:51:59;7.26;6.49;4.95;2.89;23.33;23.26;22.90;20.85;15.17;0.90
59652;SPS30;45954;49.768;8.636;2022-11-15T01:54:29;9.50;8.53;6.59;3.99;32.18;32.09;31.64;29.06;21.49;0.85
59652;SPS30;45954;49.768;8.636;2022-11-15T01:56:57;7.95;7.14;5.54;3.37;27.20;27.12;26.75;24.60;18.25;0.83
59652;SPS30;45954;49.768;8.636;2022-11-15T01:59:35;6.26;5.65;4.44;2.80;22.54;22.49;22.20;20.58;15.50;0.81
59652;SPS30;45954;49.768;8.636;2022-11-15T02:02:05;6.32;5.72;4.54;2.91;23.47;23.41;23.13;21.53;16.35;0.81
59652;SPS30;45954;49.768;8.636;2022-11-15T02:04:32;8.09;7.29;5.67;3.49;28.15;28.08;27.70;25.54;19.04;0.84
59652;SPS30;45954;49.768;8.636;2022-11-15T02:07:05;8.74;7.84;6.05;3.63;29.32;29.24;28.82;26.42;19.48;0.86
59652;SPS30;45954;49.768;8.636;2022-11-15T02:09:36;8.93;7.99;6.12;3.62;29.24;29.15;28.71;26.23;19.19;0.88
59652;SPS30;45954;49.768;8.636;2022-11-15T02:12:03;6.85;6.15;4.76;2.88;23.27;23.20;22.88;21.02;15.56;0.85
59652;SPS30;45954;49.768;8.636;2022-11-15T02:14:31;8.60;7.70;5.91;3.51;28.39;28.31;27.89;25.51;18.72;0.86
59652;SPS30;45954;49.768;8.636;2022-11-15T02:16:59;8.74;7.79;5.88;3.34;27.00;26.91;26.47;23.93;17.16;0.90
59652;SPS30;45954;49.768;8.636;2022-11-15T02:26:05;9.11;8.10;6.10;3.45;27.89;27.79;27.33;24.68;17.64;0.93
59652;SPS30;45954;49.768;8.636;2022-11-15T02:29:00;8.81;7.88;6.03;3.55;28.67;28.59;28.15;25.69;18.76;0.88
59652;SPS30;45954;49.768;8.636;2022-11-15T02:38:22;8.04;7.19;5.50;3.23;26.08;26.00;25.61;23.35;17.04;0.83
59652;SPS30;45954;49.768;8.636;2022-11-15T02:40:57;7.96;7.11;5.41;3.14;25.42;25.34;24.94;22.68;16.46;0.84
59652;SPS30;45954;49.768;8.636;2022-11-15T02:43:44;8.94;8.17;6.62;4.46;35.92;35.85;35.48;33.38;25.85;0.68
59652;SPS30;45954;49.768;8.636;2022-11-15T02:49:25;42.41;40.96;38.07;32.64;261.12;260.94;260.22;255.63;213.20;0.63
59652;SPS30;45954;49.768;8.636;2022-11-15T02:51:56;3.46;3.46;3.46;3.27;26.14;26.13;26.13;26.04;22.22;0.35
59652;SPS30;45954;49.768;8.636;2022-11-15T02:54:24;17.35;17.35;17.35;16.41;130.99;130.96;130.93;130.48;111.35;0.34
59652;SPS30;45954;49.768;8.636;2022-11-15T02:56:54;9.28;9.28;9.28;8.78;70.08;70.07;70.05;69.81;59.57;0.33
59652;SPS30;45954;49.768;8.636;2022-11-15T03:02:18;7.54;6.83;5.41;3.47;27.99;27.92;27.59;25.69;19.50;0.72
59652;SPS30;45954;49.768;8.636;2022-11-15T03:05:19;10.85;9.66;7.29;4.14;33.47;33.36;32.80;29.66;21.26;0.83
59652;SPS30;45954;49.768;8.636;2022-11-15T03:08:22;10.81;9.60;7.18;3.98;32.22;32.11;31.55;28.35;20.07;0.86
59652;SPS30;45954;49.768;8.636;2022-11-15T03:11:13;9.82;8.68;6.43;3.45;27.97;27.87;27.34;24.36;16.93;0.90
59652;SPS30;45954;49.768;8.636;2022-11-15T03:16:30;11.98;10.58;7.77;4.09;33.20;33.07;32.42;28.73;19.73;0.96
59652;SPS30;45954;49.768;8.636;2022-11-15T03:19:13;8.94;7.95;5.95;3.32;26.85;26.76;26.29;23.66;16.79;0.90
59652;SPS30;45954;49.768;8.636;2022-11-15T03:22:03;7.59;6.79;5.20;3.07;24.82;24.75;24.38;22.26;16.29;0.87
59652;SPS30;45954;49.768;8.636;2022-11-15T03:24:33;9.17;8.20;6.27;3.70;29.86;29.77;29.32;26.76;19.55;0.86
59652;SPS30;45954;49.768;8.636;2022-11-15T03:27:04;8.89;7.93;6.02;3.47;28.06;27.97;27.53;24.99;18.06;0.88
59652;SPS30;45954;49.768;8.636;2022-11-15T03:29:34;8.91;7.92;5.93;3.30;26.73;26.64;26.18;23.55;16.71;0.90
59652;SPS30;45954;49.768;8.636;2022-11-15T03:32:10;7.31;6.55;5.02;2.98;24.06;23.99;23.63;21.60;15.83;0.83
59652;SPS30;45954;49.768;8.636;2022-11-15T03:34:46;8.62;7.74;5.97;3.60;29.07;28.98;28.57;26.22;19.36;0.80
59652;SPS30;45954;49.768;8.636;2022-11-15T03:37:21;8.06;7.25;5.61;3.41;27.55;27.47;27.09;24.91;18.48;0.79
59652;SPS30;45954;49.768;8.636;2022-11-15T03:40:02;8.05;7.23;5.58;3.36;27.17;27.09;26.71;24.51;18.11;0.80
59652;SPS30;45954;49.768;8.636;2022-11-15T03:42:31;6.55;5.90;4.60;2.83;22.86;22.80;22.50;20.76;15.49;0.79
59652;SPS30;45954;49.768;8.636;2022-11-15T03:45:28;7.40;6.66;5.20;3.22;25.98;25.91;25.57;23.61;17.65;0.78
59652;SPS30;45954;49.768;8.636;2022-11-15T03:48:07;7.03;6.34;4.99;3.13;25.28;25.22;24.90;23.08;17.37;0.76
59652;SPS30;45954;49.768;8.636;2022-11-15T03:50:48;7.99;7.17;5.55;3.37;27.20;27.13;26.75;24.58;18.21;0.82
59652;SPS30;45954;49.768;8.636;2022-11-15T03:53:14;8.11;7.25;5.54;3.25;26.24;26.16;25.76;23.48;17.11;0.84
59652;SPS30;45954;49.768;8.636;2022-11-15T03:55:40;6.66;6.23;5.37;4.08;32.74;32.70;32.49;31.28;25.23;0.63
59652;SPS30;45954;49.768;8.636;2022-11-15T03:58:06;6.72;6.14;4.99;3.37;27.16;27.10;26.83;25.26;19.58;0.67
59652;SPS30;45954;49.768;8.636;2022-11-15T04:00:32;6.64;6.00;4.74;3.01;24.31;24.25;23.95;22.25;16.84;0.74
59652;SPS30;45954;49.768;8.636;2022-11-15T04:02:58;10.33;9.25;7.10;4.21;34.01;33.91;33.41;30.54;22.39;0.83
59652;SPS30;45954;49.768;8.636;2022-11-15T04:05:24;9.12;8.12;6.12;3.46;27.97;27.88;27.41;24.76;17.71;0.86
59652;SPS30;45954;49.768;8.636;2022-11-15T04:07:50;8.09;7.19;5.38;2.98;24.15;24.07;23.65;21.25;15.05;0.88
59652;SPS30;45954;49.768;8.636;2022-11-15T04:10:15;8.77;7.77;5.78;3.15;25.55;25.45;24.99;22.36;15.68;0.90
59652;SPS30;45954;49.768;8.636;2022-11-15T04:12:42;8.26;7.34;5.50;3.07;24.87;24.78;24.36;21.93;15.58;0.89
59652;SPS30;45954;49.768;8.636;2022-11-15T04:15:20;10.05;8.97;6.82;3.94;31.86;31.75;31.25;28.39;20.55;0.85
59652;SPS30;45954;49.768;8.636;2022-11-15T04:17:54;7.34;6.54;4.96;2.85;23.05;22.97;22.60;20.50;14.79;0.84
59652;SPS30;45954;49.768;8.636;2022-11-15T04:23:09;7.97;7.12;5.42;3.16;25.55;25.47;25.07;22.82;16.58;0.86
59652;SPS30;45954;49.768;8.636;2022-11-15T04:25:58;9.23;8.19;6.12;3.38;27.39;27.29;26.81;24.07;17.00;0.91
59652;SPS30;45954;49.768;8.636;2022-11-15T04:28:35;8.08;7.19;5.39;3.02;24.45;24.36;23.94;21.57;15.35;0.92
59652;SPS30;45954;49.768;8.636;2022-11-15T04:31:21;7.25;6.49;4.96;2.91;23.51;23.44;23.08;21.04;15.35;0.90
59652;SPS30;45954;49.768;8.636;2022-11-15T04:33:47;8.61;7.67;5.80;3.32;26.83;26.74;26.30;23.82;17.14;0.91
59652;SPS30;45954;49.768;8.636;2022-11-15T04:36:13;8.72;7.74;5.80;3.23;26.14;26.05;25.59;23.02;16.33;0.92
59652;SPS30;45954;49.768;8.636;2022-11-15T04:38:57;8.70;7.71;5.74;3.13;25.34;25.25;24.79;22.18;15.56;0.92
59652;SPS30;45954;49.768;8.636;2022-11-15T04:41:23;6.92;6.15;4.60;2.54;20.60;20.52;20.16;18.11;12.81;0.90
59652;SPS30;45954;49.768;8.636;2022-11-15T04:43:49;7.36;6.57;5.00;2.89;23.38;23.30;22.94;20.84;15.09;0.86
59652;SPS30;45954;49.768;8.636;2022-11-15T04:46:15;9.23;8.24;6.27;3.63;29.38;29.29;28.83;26.21;19.00;0.86
59652;SPS30;45954;49.768;8.636;2022-11-15T04:48:41;40.26;39.54;38.11;34.38;274.79;274.67;274.28;271.51;229.25;0.37
59652;SPS30;45954;49.768;8.636;2022-11-15T04:51:07;3.43;3.43;3.43;3.25;25.92;25.92;25.91;25.82;22.04;0.37
59652;SPS30;45954;49.768;8.636;2022-11-15T04:53:33;3.69;3.55;3.28;2.79;22.33;22.32;22.25;21.83;18.17;0.53
59652;SPS30;45954;49.768;8.636;2022-11-15T04:55:58;6.04;5.54;4.56;3.17;25.49;25.45;25.21;23.87;18.69;0.69
59652;SPS30;45954;49.768;8.636;2022-11-15T04:58:24;6.09;5.52;4.38;2.81;22.66;22.61;22.34;20.81;15.81;0.76
59652;SPS30;45954;49.768;8.636;2022-11-15T05:00:50;7.19;6.52;5.19;3.36;27.10;27.03;26.72;24.93;19.00;0.75
59652;SPS30;45954;49.768;8.636;2022-11-15T05:03:16;8.04;7.26;5.71;3.60;29.04;28.97;28.61;26.52;19.99;0.80
59652;SPS30;45954;49.768;8.636;2022-11-15T05:06:01;8.03;7.20;5.53;3.29;26.61;26.53;26.14;23.92;17.57;0.83
59652;SPS30;45954;49.768;8.636;2022-11-15T05:08:27;7.51;6.73;5.18;3.09;24.95;24.87;24.51;22.44;16.50;0.82
59652;SPS30;45954;49.768;8.636;2022-11-15T05:10:53;7.38;6.61;5.07;3.00;24.25;24.18;23.82;21.77;15.95;0.82
59652;SPS30;45954;49.768;8.636;2022-11-15T05:13:18;6.69;6.00;4.63;2.78;22.47;22.41;22.09;20.26;14.94;0.81
59652;SPS30;45954;49.768;8.636;2022-11-15T05:15:44;7.80;6.99;5.36;3.17;25.63;25.56;25.18;23.01;16.85;0.83
59652;SPS30;45954;49.768;8.636;2022-11-15T05:18:10;7.94;7.14;5.55;3.39;27.38;27.31;26.93;24.80;18.45;0.79
59652;SPS30;45954;49.768;8.636;2022-11-15T05:20:36;8.29;7.44;5.75;3.47;28.00;27.92;27.52;25.26;18.66;0.82
59652;SPS30;45954;49.768;8.636;2022-11-15T05:23:02;43.52;42.47;40.38;35.75;285.82;285.67;285.12;281.47;236.61;0.32
59652;SPS30;45954;49.768;8.636;2022-11-15T05:25:28;21.69;21.69;21.69;20.51;163.76;163.73;163.69;163.13;139.21;0.30
59652;SPS30;45954;49.768;8.636;2022-11-15T05:27:54;3.27;3.27;3.27;3.09;24.69;24.69;24.68;24.60;20.99;0.38
59652;SPS30;45954;49.768;8.636;2022-11-15T05:30:20;6.12;5.74;4.98;3.83;30.71;30.67;30.49;29.42;23.80;0.60
59652;SPS30;45954;49.768;8.636;2022-11-15T05:32:46;5.84;5.31;4.27;2.82;22.72;22.67;22.43;21.02;16.15;0.71
59652;SPS30;45954;49.768;8.636;2022-11-15T05:35:18;7.70;6.98;5.55;3.58;28.83;28.76;28.42;26.49;20.15;0.74
59652;SPS30;45954;49.768;8.636;2022-11-15T05:37:57;7.01;6.33;4.98;3.14;25.35;25.28;24.96;23.15;17.45;0.77
59652;SPS30;45954;49.768;8.636;2022-11-15T05:40:24;25.35;23.96;21.19;16.83;134.85;134.71;134.04;130.04;106.25;0.78
59652;SPS30;45954;49.768;8.636;2022-11-15T05:42:51;21.55;21.41;21.14;19.67;157.10;157.06;156.96;156.07;132.72;0.32
59652;SPS30;45954;49.768;8.636;2022-11-15T05:45:18;5.11;4.89;4.45;3.69;29.56;29.53;29.42;28.76;23.79;0.53
59652;SPS30;45954;49.768;8.636;2022-11-15T05:47:44;6.54;5.93;4.73;3.07;24.75;24.69;24.41;22.78;17.39;0.70
59652;SPS30;45954;49.768;8.636;2022-11-15T05:50:12;33.14;32.59;31.51;28.53;228.00;227.91;227.61;225.44;190.52;0.43
59652;SPS30;45954;49.768;8.636;2022-11-15T05:52:42;3.74;3.74;3.74;3.54;28.27;28.27;28.26;28.16;24.03;0.39
59652;SPS30;45954;49.768;8.636;2022-11-15T05:55:12;12.18;11.93;11.44;10.25;81.91;81.87;81.74;80.83;68.13;0.45
59652;SPS30;45954;49.768;8.636;2022-11-15T05:57:39;2.82;2.82;2.82;2.66;21.28;21.27;21.27;21.19;18.09;0.44
59652;SPS30;45954;49.768;8.636;2022-11-15T06:00:05;8.59;8.59;8.59;8.13;64.88;64.87;64.85;64.63;55.15;0.35
59652;SPS30;45954;49.768;8.636;2022-11-15T06:02:33;3.27;3.27;3.27;3.09;24.68;24.67;24.67;24.58;20.98;0.48
59652;SPS30;45954;49.768;8.636;2022-11-15T06:04:59;5.99;5.57;4.74;3.51;28.21;28.17;27.97;26.81;21.45;0.62
59652;SPS30;45954;49.768;8.636;2022-11-15T06:07:24;5.82;5.30;4.28;2.85;22.96;22.91;22.67;21.28;16.40;0.72
59652;SPS30;45954;49.768;8.636;2022-11-15T06:09:50;7.26;6.57;5.17;3.27;26.39;26.32;25.99;24.12;18.21;0.77
59652;SPS30;45954;49.768;8.636;2022-11-15T06:12:16;9.97;8.93;6.85;4.06;32.78;32.68;32.20;29.43;21.56;0.83
59652;SPS30;45954;49.768;8.636;2022-11-15T06:14:42;12.40;11.02;8.27;4.61;37.33;37.20;36.56;32.91;23.38;0.88
59652;SPS30;45954;49.768;8.636;2022-11-15T06:17:08;13.13;11.58;8.49;4.43;35.98;35.84;35.12;31.04;21.21;0.94
59652;SPS30;45954;49.768;8.636;2022-11-15T06:19:33;12.10;10.65;7.75;3.97;32.24;32.10;31.43;27.62;18.63;0.96
59652;SPS30;45954;49.768;8.636;2022-11-15T06:21:59;11.27;9.94;7.29;3.81;30.89;30.76;30.15;26.65;18.21;0.94
59652;SPS30;45954;49.768;8.636;2022-11-15T06:24:25;9.87;8.77;6.55;3.62;29.35;29.25;28.73;25.80;18.24;0.90
59652;SPS30;45954;49.768;8.636;2022-11-15T06:26:51;13.96;12.42;9.34;5.25;42.47;42.32;41.61;37.52;26.76;0.88
59652;SPS30;45954;49.768;8.636;2022-11-15T06:29:17;10.35;9.43;7.60;5.05;40.63;40.54;40.11;37.62;28.97;0.75
59652;SPS30;45954;49.768;8.636;2022-11-15T06:31:43;12.41;11.26;8.97;5.83;46.96;46.85;46.31;43.23;32.99;0.80
59652;SPS30;45954;49.768;8.636;2022-11-15T06:34:09;10.79;9.81;7.86;5.16;41.60;41.50;41.04;38.41;29.45;0.76
59652;SPS30;45954;49.768;8.636;2022-11-15T06:36:35;8.48;7.83;6.54;4.68;37.62;37.56;37.25;35.47;28.07;0.73
59652;SPS30;45954;49.768;8.636;2022-11-15T06:39:02;9.68;9.09;7.93;6.15;49.34;49.28;49.01;47.35;38.43;0.65
59652;SPS30;45954;49.768;8.636;2022-11-15T06:41:29;6.53;6.22;5.61;4.59;36.78;36.74;36.59;35.68;29.40;0.54
59652;SPS30;45954;49.768;8.636;2022-11-15T06:43:56;4.33;4.33;4.33;4.09;32.68;32.68;32.67;32.56;27.78;0.47
59652;SPS30;45954;49.768;8.636;2022-11-15T06:46:22;5.04;5.04;5.04;4.77;38.08;38.07;38.06;37.93;32.37;0.43
59652;SPS30;45954;49.768;8.636;2022-11-15T06:48:50;4.17;4.17;4.17;3.95;31.51;31.50;31.49;31.38;26.78;0.41
59652;SPS30;45954;49.768;8.636;2022-11-15T06:51:17;3.85;3.85;3.85;3.64;29.07;29.06;29.05;28.95;24.71;0.41
59652;SPS30;45954;49.768;8.636;2022-11-15T06:53:43;3.76;3.76;3.76;3.56;28.40;28.40;28.39;28.29;24.14;0.42
59652;SPS30;45954;49.768;8.636;2022-11-15T06:56:09;4.05;4.05;4.05;3.83;30.56;30.56;30.55;30.44;25.98;0.40
59652;SPS30;45954;49.768;8.636;2022-11-15T06:58:35;3.29;3.29;3.29;3.11;24.81;24.81;24.80;24.72;21.09;0.40
59652;SPS30;45954;49.768;8.636;2022-11-15T07:01:05;3.41;3.41;3.41;3.22;25.73;25.73;25.72;25.63;21.87;0.39
59652;SPS30;45954;49.768;8.636;2022-11-15T07:03:35;3.41;3.41;3.41;3.22;25.75;25.74;25.73;25.65;21.88;0.40
59652;SPS30;45954;49.768;8.636;2022-11-15T07:06:03;4.61;4.61;4.61;4.36;34.80;34.79;34.78;34.66;29.58;0.39
59652;SPS30;45954;49.768;8.636;2022-11-15T07:08:29;3.62;3.62;3.62;3.42;27.34;27.34;27.33;27.24;23.24;0.38
59652;SPS30;45954;49.768;8.636;2022-11-15T07:10:59;3.57;3.57;3.57;3.38;26.99;26.98;26.98;26.88;22.94;0.39
59652;SPS30;45954;49.768;8.636;2022-11-15T07:13:29;3.73;3.73;3.73;3.53;28.17;28.16;28.16;28.06;23.95;0.40
59652;SPS30;45954;49.768;8.636;2022-11-15T07:16:03;4.09;4.09;4.09;3.87;30.88;30.87;30.86;30.76;26.25;0.39
59652;SPS30;45954;49.768;8.636;2022-11-15T07:18:30;3.79;3.79;3.79;3.58;28.58;28.58;28.57;28.47;24.30;0.41
59652;SPS30;45954;49.768;8.636;2022-11-15T07:21:02;5.59;5.59;5.59;5.29;42.24;42.23;42.22;42.08;35.90;0.44
59652;SPS30;45954;49.768;8.636;2022-11-15T07:23:30;6.22;6.22;6.22;5.88;46.98;46.97;46.95;46.79;39.93;0.52
59652;SPS30;45954;49.768;8.636;2022-11-15T07:25:59;4.92;4.92;4.92;4.65;37.13;37.12;37.11;36.98;31.56;0.48
59652;SPS30;45954;49.768;8.636;2022-11-15T07:28:26;4.31;4.31;4.31;4.07;32.52;32.52;32.51;32.40;27.65;0.46
59652;SPS30;45954;49.768;8.636;2022-11-15T07:30:52;5.21;5.21;5.21;4.93;39.33;39.32;39.31;39.17;33.43;0.47
59652;SPS30;45954;49.768;8.636;2022-11-15T07:33:18;10.53;10.25;9.71;8.54;68.31;68.27;68.13;67.20;56.41;0.56
59652;SPS30;45954;49.768;8.636;2022-11-15T07:35:44;22.34;20.71;17.46;12.73;102.25;102.08;101.31;96.81;77.06;0.70
59652;SPS30;45954;49.768;8.636;2022-11-15T07:38:13;12.57;11.67;9.88;7.26;58.32;58.23;57.81;55.32;44.15;0.67
59652;SPS30;45954;49.768;8.636;2022-11-15T07:40:40;5.86;5.71;5.41;4.77;38.14;38.12;38.04;37.53;31.51;0.54
59652;SPS30;45954;49.768;8.636;2022-11-15T07:43:07;4.60;4.60;4.60;4.35;34.75;34.74;34.73;34.62;29.54;0.47
59652;SPS30;45954;49.768;8.636;2022-11-15T07:45:34;5.31;5.31;5.31;5.03;40.13;40.12;40.11;39.97;34.11;0.46
59652;SPS30;45954;49.768;8.636;2022-11-15T07:48:07;4.52;4.52;4.52;4.27;34.11;34.10;34.10;33.98;29.00;0.45
59652;SPS30;45954;49.768;8.636;2022-11-15T07:50:33;4.90;4.90;4.90;4.64;37.02;37.01;37.00;36.88;31.47;0.44
59652;SPS30;45954;49.768;8.636;2022-11-15T07:52:59;4.84;4.84;4.84;4.58;36.57;36.56;36.55;36.43;31.08;0.43
59652;SPS30;45954;49.768;8.636;2022-11-15T07:55:26;4.94;4.94;4.94;4.68;37.33;37.32;37.31;37.19;31.73;0.42
59652;SPS30;45954;49.768;8.636;2022-11-15T07:58:27;5.31;5.31;5.31;5.02;40.06;40.05;40.04;39.90;34.05;0.45
59652;SPS30;45954;49.768;8.636;2022-11-15T08:00:46;4.81;4.81;4.81;4.55;36.32;36.31;36.30;36.18;30.87;0.47
59652;SPS30;45954;49.768;8.636;2022-11-15T08:03:13;5.29;5.29;5.29;5.01;39.97;39.96;39.95;39.82;33.98;0.48
59652;SPS30;45954;49.768;8.636;2022-11-15T08:05:41;5.32;5.32;5.32;5.03;40.18;40.17;40.16;40.03;34.15;0.48
59652;SPS30;45954;49.768;8.636;2022-11-15T08:08:10;5.45;5.45;5.45;5.15;41.12;41.11;41.10;40.96;34.95;0.48
59652;SPS30;45954;49.768;8.636;2022-11-15T08:10:36;4.90;4.90;4.90;4.64;37.01;37.01;37.00;36.87;31.46;0.48
59652;SPS30;45954;49.768;8.636;2022-11-15T08:13:04;5.91;5.91;5.91;5.59;44.62;44.61;44.60;44.45;37.93;0.49
59652;SPS30;45954;49.768;8.636;2022-11-15T08:15:35;14.26;14.26;14.25;13.47;107.56;107.54;107.51;107.14;91.42;0.53
59652;SPS30;45954;49.768;8.636;2022-11-15T08:18:03;6.71;6.71;6.71;6.34;50.65;50.65;50.63;50.46;43.06;0.49
59652;SPS30;45954;49.768;8.636;2022-11-15T08:20:36;7.64;7.64;7.64;7.22;57.66;57.65;57.63;57.44;49.01;0.49
59652;SPS30;45954;49.768;8.636;2022-11-15T08:23:03;4.51;4.51;4.51;4.27;34.09;34.08;34.08;33.96;28.98;0.48
59652;SPS30;45954;49.768;8.636;2022-11-15T08:25:31;5.83;5.83;5.83;5.52;44.05;44.04;44.03;43.88;37.44;0.46
59652;SPS30;45954;49.768;8.636;2022-11-15T08:27:59;5.36;5.36;5.36;5.07;40.47;40.46;40.45;40.31;34.40;0.46
59652;SPS30;45954;49.768;8.636;2022-11-15T08:30:29;4.68;4.68;4.68;4.43;35.36;35.35;35.34;35.22;30.05;0.46
59652;SPS30;45954;49.768;8.636;2022-11-15T08:33:01;4.79;4.79;4.79;4.53;36.17;36.17;36.16;36.03;30.75;0.50
59652;SPS30;45954;49.768;8.636;2022-11-15T08:35:27;4.69;4.69;4.69;4.43;35.40;35.39;35.38;35.26;30.09;0.52
59652;SPS30;45954;49.768;8.636;2022-11-15T08:37:53;5.74;5.74;5.74;5.43;43.36;43.35;43.34;43.19;36.85;0.50
59652;SPS30;45954;49.768;8.636;2022-11-15T08:40:19;5.31;5.31;5.31;5.02;40.09;40.08;40.07;39.93;34.08;0.45
59652;SPS30;45954;49.768;8.636;2022-11-15T08:42:46;3.94;3.94;3.94;3.72;29.73;29.73;29.72;29.62;25.27;0.47
59652;SPS30;45954;49.768;8.636;2022-11-15T08:45:13;4.18;4.18;4.18;3.95;31.54;31.53;31.53;31.42;26.81;0.44
59652;SPS30;45954;49.768;8.636;2022-11-15T08:47:39;4.00;4.00;4.00;3.78;30.18;30.17;30.17;30.06;25.65;0.45
59652;SPS30;45954;49.768;8.636;2022-11-15T08:50:05;3.61;3.61;3.61;3.42;27.28;27.28;27.27;27.18;23.19;0.42
59652;SPS30;45954;49.768;8.636;2022-11-15T08:52:32;3.77;3.77;3.77;3.56;28.46;28.46;28.45;28.35;24.19;0.39
59652;SPS30;45954;49.768;8.636;2022-11-15T08:54:58;4.13;4.13;4.13;3.91;31.21;31.20;31.19;31.09;26.53;0.40
59652;SPS30;45954;49.768;8.636;2022-11-15T08:57:24;4.25;4.25;4.25;4.02;32.07;32.06;32.06;31.95;27.26;0.42
59652;SPS30;45954;49.768;8.636;2022-11-15T08:59:54;3.98;3.98;3.98;3.76;30.04;30.04;30.03;29.93;25.54;0.42
59652;SPS30;45954;49.768;8.636;2022-11-15T09:02:20;4.28;4.28;4.28;4.04;32.28;32.28;32.27;32.16;27.44;0.42
59652;SPS30;45954;49.768;8.636;2022-11-15T09:04:46;4.25;4.25;4.25;4.02;32.09;32.08;32.07;31.96;27.28;0.44
59652;SPS30;45954;49.768;8.636;2022-11-15T09:07:12;4.62;4.62;4.62;4.37;34.86;34.85;34.84;34.72;29.63;0.43
59652;SPS30;45954;49.768;8.636;2022-11-15T09:09:39;3.88;3.88;3.88;3.67;29.33;29.33;29.32;29.22;24.93;0.40
59652;SPS30;45954;49.768;8.636;2022-11-15T09:12:06;4.05;4.05;4.05;3.83;30.55;30.54;30.53;30.43;25.97;0.41
59652;SPS30;45954;49.768;8.636;2022-11-15T09:14:33;4.45;4.45;4.45;4.21;33.60;33.59;33.58;33.47;28.56;0.43
59652;SPS30;45954;49.768;8.636;2022-11-15T09:16:59;4.28;4.28;4.28;4.05;32.30;32.29;32.29;32.18;27.46;0.43
59652;SPS30;45954;49.768;8.636;2022-11-15T09:19:26;3.96;3.96;3.96;3.75;29.90;29.90;29.89;29.79;25.42;0.45
59652;SPS30;45954;49.768;8.636;2022-11-15T09:21:52;4.20;4.20;4.20;3.97;31.73;31.72;31.71;31.60;26.97;0.46
59652;SPS30;45954;49.768;8.636;2022-11-15T09:24:18;3.71;3.71;3.71;3.51;28.02;28.01;28.01;27.91;23.82;0.45
59652;SPS30;45954;49.768;8.636;2022-11-15T09:26:44;4.12;4.12;4.12;3.90;31.13;31.13;31.12;31.01;26.46;0.42
59652;SPS30;45954;49.768;8.636;2022-11-15T09:29:10;3.64;3.64;3.64;3.44;27.48;27.47;27.46;27.37;23.36;0.47
59652;SPS30;45954;49.768;8.636;2022-11-15T09:31:35;3.73;3.73;3.73;3.53;28.20;28.19;28.19;28.09;23.97;0.49
59652;SPS30;45954;49.768;8.636;2022-11-15T09:34:02;3.62;3.62;3.62;3.43;27.37;27.36;27.35;27.26;23.26;0.50
59652;SPS30;45954;49.768;8.636;2022-11-15T09:36:27;3.99;3.99;3.99;3.78;30.15;30.14;30.13;30.03;25.63;0.51
59652;SPS30;45954;49.768;8.636;2022-11-15T09:38:53;3.63;3.63;3.63;3.43;27.38;27.37;27.37;27.27;23.27;0.51
59652;SPS30;45954;49.768;8.636;2022-11-15T09:50:12;3.52;3.52;3.52;3.33;26.57;26.57;26.56;26.47;22.59;0.48